createdAt,value
2018-07-15T00:00:44.835Z,5.97
2018-07-15T00:03:11.929Z,6.40
2018-07-15T00:05:39.081Z,6.70
2018-07-15T00:08:06.206Z,6.03
2018-07-15T00:10:41.220Z,6.47
2018-07-15T00:13:08.365Z,6.47
2018-07-15T00:15:35.457Z,6.70
2018-07-15T00:18:02.566Z,6.20
2018-07-15T00:20:29.681Z,6.63
2018-07-15T00:22:56.794Z,7.07
2018-07-15T00:25:23.916Z,6.20
2018-07-15T00:27:51.036Z,6.60
2018-07-15T00:30:18.129Z,6.60
2018-07-15T00:32:45.304Z,7.17
2018-07-15T00:35:12.426Z,6.40
2018-07-15T00:37:39.549Z,6.17
2018-07-15T00:40:06.744Z,6.73
2018-07-15T00:42:33.865Z,6.83
2018-07-15T00:45:00.975Z,6.37
2018-07-15T00:47:28.085Z,6.70
2018-07-15T00:49:55.192Z,6.70
2018-07-15T00:52:22.293Z,6.80
2018-07-15T00:54:49.417Z,6.30
2018-07-15T00:57:16.548Z,6.33
2018-07-15T00:59:43.642Z,6.30
2018-07-15T01:02:10.794Z,6.20
2018-07-15T01:04:37.934Z,7.27
2018-07-15T01:07:05.109Z,6.67
2018-07-15T01:09:32.256Z,6.83
2018-07-15T01:11:59.342Z,7.30
2018-07-15T01:14:26.443Z,7.70
2018-07-15T01:16:53.541Z,7.63
2018-07-15T01:19:20.729Z,9.23
2018-07-15T01:21:47.849Z,11.23
2018-07-15T01:24:15.005Z,11.07
2018-07-15T01:26:42.117Z,9.83
2018-07-15T01:29:09.300Z,11.37
2018-07-15T01:31:36.412Z,11.17
2018-07-15T01:34:03.518Z,10.83
2018-07-15T01:36:30.681Z,12.00
2018-07-15T01:38:57.813Z,12.70
2018-07-15T01:41:24.917Z,13.03
2018-07-15T01:43:52.037Z,12.90
2018-07-15T01:46:19.149Z,9.40
2018-07-15T01:48:46.305Z,8.50
2018-07-15T01:51:13.460Z,8.00
2018-07-15T01:53:40.574Z,7.10
2018-07-15T01:56:07.680Z,7.13
2018-07-15T01:58:35.055Z,7.77
2018-07-15T02:01:02.163Z,6.77
2018-07-15T02:03:29.617Z,7.03
2018-07-15T02:05:56.941Z,7.13
2018-07-15T02:08:24.058Z,7.37
2018-07-15T02:10:51.155Z,7.00
2018-07-15T02:13:18.262Z,7.47
2018-07-15T02:15:45.377Z,7.47
2018-07-15T02:18:12.487Z,6.80
2018-07-15T02:20:39.842Z,7.30
2018-07-15T02:23:06.946Z,7.97
2018-07-15T02:25:34.058Z,7.40
2018-07-15T02:28:01.165Z,7.30
2018-07-15T02:30:28.261Z,7.13
2018-07-15T02:32:55.368Z,6.80
2018-07-15T02:35:22.505Z,6.87
2018-07-15T02:37:49.613Z,7.40
2018-07-15T02:40:16.839Z,7.40
2018-07-15T02:42:43.932Z,7.03
2018-07-15T02:45:11.053Z,7.53
2018-07-15T02:47:38.166Z,6.90
2018-07-15T02:50:05.261Z,7.03
2018-07-15T02:52:32.362Z,6.80
2018-07-15T02:54:59.470Z,7.90
2018-07-15T02:57:26.568Z,9.53
2018-07-15T02:59:53.693Z,8.23
2018-07-15T03:02:20.807Z,8.07
2018-07-15T03:04:47.910Z,7.83
2018-07-15T03:07:15.036Z,7.10
2018-07-15T03:12:23.890Z,7.00
2018-07-15T03:14:51.006Z,7.20
2018-07-15T03:17:18.130Z,6.73
2018-07-15T03:19:45.218Z,8.00
2018-07-15T03:22:12.336Z,7.40
2018-07-15T03:24:39.445Z,7.77
2018-07-15T03:27:06.625Z,7.40
2018-07-15T03:29:33.748Z,7.77
2018-07-15T03:32:01.001Z,7.50
2018-07-15T03:34:28.081Z,8.07
2018-07-15T03:36:55.189Z,7.47
2018-07-15T03:39:22.355Z,7.60
2018-07-15T03:41:49.398Z,7.40
2018-07-15T03:44:16.501Z,7.37
2018-07-15T03:46:43.589Z,6.63
2018-07-15T03:49:10.700Z,7.40
2018-07-15T03:51:37.818Z,7.00
2018-07-15T03:54:04.918Z,7.20
2018-07-15T03:56:32.039Z,7.13
2018-07-15T03:58:59.133Z,8.03
2018-07-15T04:01:26.261Z,7.23
2018-07-15T04:03:53.358Z,6.67
2018-07-15T04:06:20.483Z,6.23
2018-07-15T04:08:47.609Z,6.90
2018-07-15T04:11:14.712Z,7.60
2018-07-15T04:13:41.869Z,7.33
2018-07-15T04:16:08.968Z,7.43
2018-07-15T04:18:36.084Z,7.20
2018-07-15T04:21:03.188Z,7.10
2018-07-15T04:23:30.321Z,7.10
2018-07-15T04:25:57.419Z,7.23
2018-07-15T04:28:24.591Z,7.00
2018-07-15T04:30:51.609Z,6.83
2018-07-15T04:33:19.133Z,7.00
2018-07-15T04:35:46.221Z,7.20
2018-07-15T04:38:13.582Z,6.60
2018-07-15T04:40:40.713Z,6.67
2018-07-15T04:43:07.809Z,6.77
2018-07-15T04:45:35.053Z,7.10
2018-07-15T04:48:02.166Z,7.00
2018-07-15T04:50:29.273Z,7.30
2018-07-15T04:52:56.361Z,6.80
2018-07-15T04:55:23.461Z,6.93
2018-07-15T04:57:50.561Z,7.00
2018-07-15T05:00:17.672Z,6.90
2018-07-15T05:02:44.784Z,6.83
2018-07-15T05:05:11.899Z,6.87
2018-07-15T05:07:38.999Z,8.23
2018-07-15T05:10:06.097Z,7.03
2018-07-15T05:12:33.201Z,6.90
2018-07-15T05:15:00.285Z,7.00
2018-07-15T05:17:27.497Z,7.43
2018-07-15T05:19:54.601Z,7.10
2018-07-15T05:22:21.781Z,6.80
2018-07-15T05:24:48.921Z,7.13
2018-07-15T05:27:16.002Z,7.10
2018-07-15T05:29:43.101Z,6.60
2018-07-15T05:32:10.201Z,7.00
2018-07-15T05:34:37.317Z,7.10
2018-07-15T05:37:04.412Z,6.70
2018-07-15T05:39:31.533Z,7.23
2018-07-15T05:41:58.658Z,6.97
2018-07-15T05:44:25.862Z,6.33
2018-07-15T05:46:52.825Z,7.00
2018-07-15T05:49:19.924Z,7.27
2018-07-15T05:51:47.174Z,7.30
2018-07-15T05:54:14.232Z,7.70
2018-07-15T05:56:41.456Z,7.43
2018-07-15T05:59:08.550Z,7.30
2018-07-15T06:01:36.101Z,7.40
2018-07-15T06:04:03.201Z,7.60
2018-07-15T06:06:30.308Z,7.27
2018-07-15T06:08:57.448Z,7.00
2018-07-15T06:11:24.594Z,7.30
2018-07-15T06:13:51.681Z,7.40
2018-07-15T06:16:18.843Z,7.27
2018-07-15T06:18:45.949Z,7.30
2018-07-15T06:21:13.077Z,7.60
2018-07-15T06:23:40.214Z,7.73
2018-07-15T06:26:07.312Z,8.37
2018-07-15T06:28:34.420Z,7.77
2018-07-15T06:31:01.705Z,7.60
2018-07-15T06:33:28.784Z,7.20
2018-07-15T06:35:55.994Z,8.70
2018-07-15T06:38:23.097Z,7.20
2018-07-15T06:40:50.219Z,8.10
2018-07-15T06:43:17.336Z,7.93
2018-07-15T06:45:44.429Z,7.50
2018-07-15T06:48:11.643Z,7.53
2018-07-15T06:50:38.766Z,7.50
2018-07-15T06:53:06.121Z,8.00
2018-07-15T06:55:33.209Z,8.03
2018-07-15T06:58:00.301Z,7.07
2018-07-15T07:00:27.393Z,7.87
2018-07-15T07:02:54.497Z,7.57
2018-07-15T07:05:21.632Z,7.40
2018-07-15T07:07:48.761Z,7.43
2018-07-15T07:10:15.865Z,7.23
2018-07-15T07:12:43.015Z,7.30
2018-07-15T07:15:10.132Z,7.27
2018-07-15T07:17:37.256Z,7.00
2018-07-15T07:20:04.365Z,6.57
2018-07-15T07:22:31.453Z,7.20
2018-07-15T07:24:58.556Z,7.57
2018-07-15T07:27:25.670Z,7.90
2018-07-15T07:29:52.769Z,7.30
2018-07-15T07:32:19.861Z,7.40
2018-07-15T07:34:46.989Z,7.30
2018-07-15T07:37:14.186Z,7.30
2018-07-15T07:39:41.270Z,7.60
2018-07-15T07:42:08.359Z,6.80
2018-07-15T07:44:35.449Z,7.17
2018-07-15T07:47:02.778Z,7.00
2018-07-15T07:49:29.808Z,6.87
2018-07-15T07:51:57.028Z,6.50
2018-07-15T07:54:24.157Z,7.17
2018-07-15T07:56:51.314Z,7.00
2018-07-15T07:59:18.388Z,6.73
2018-07-15T08:01:45.497Z,7.40
2018-07-15T08:04:12.709Z,6.83
2018-07-15T08:06:39.800Z,7.00
2018-07-15T08:09:07.277Z,6.63
2018-07-15T08:11:34.626Z,7.43
2018-07-15T08:14:01.789Z,7.03
2018-07-15T08:16:28.950Z,7.00
2018-07-15T08:18:56.073Z,7.03
2018-07-15T08:21:23.256Z,6.40
2018-07-15T08:23:50.368Z,6.40
2018-07-15T08:26:17.476Z,6.47
2018-07-15T08:31:29.253Z,6.33
2018-07-15T08:33:56.359Z,6.50
2018-07-15T08:36:23.461Z,6.10
2018-07-15T08:38:50.589Z,6.70
2018-07-15T08:41:17.756Z,6.27
2018-07-15T08:43:44.936Z,6.20
2018-07-15T08:46:13.054Z,6.37
2018-07-15T08:48:40.185Z,6.20
2018-07-15T08:51:07.318Z,5.50
2018-07-15T08:53:34.440Z,6.30
2018-07-15T08:56:01.538Z,6.10
2018-07-15T08:58:28.650Z,5.67
2018-07-15T09:00:55.783Z,5.80
2018-07-15T09:03:22.898Z,5.40
2018-07-15T09:05:50.102Z,5.77
2018-07-15T09:08:17.232Z,5.60
2018-07-15T09:10:44.438Z,5.37
2018-07-15T09:13:11.533Z,5.47
2018-07-15T09:15:38.649Z,5.80
2018-07-15T09:18:05.746Z,5.33
2018-07-15T09:20:32.859Z,5.67
2018-07-15T09:22:59.991Z,5.53
2018-07-15T09:25:27.105Z,6.17
2018-07-15T09:27:54.289Z,6.10
2018-07-15T09:30:21.426Z,5.93
2018-07-15T09:32:48.534Z,5.80
2018-07-15T09:35:15.841Z,5.33
2018-07-15T09:37:43.109Z,5.40
2018-07-15T09:40:10.226Z,3.90
2018-07-15T09:42:37.344Z,3.80
2018-07-15T09:45:04.567Z,3.87
2018-07-15T09:47:31.689Z,4.20
2018-07-15T09:49:58.812Z,3.63
2018-07-15T09:52:25.951Z,3.23
2018-07-15T09:54:53.076Z,3.73
2018-07-15T09:57:20.211Z,3.90
2018-07-15T09:59:47.428Z,4.03
2018-07-15T10:02:14.647Z,3.80
2018-07-15T10:04:41.750Z,3.30
2018-07-15T10:07:08.874Z,3.30
2018-07-15T10:09:36.823Z,3.60
2018-07-15T10:12:04.025Z,3.30
2018-07-15T10:14:31.134Z,3.10
2018-07-15T10:16:58.270Z,2.97
2018-07-15T10:19:25.379Z,3.10
2018-07-15T10:21:52.484Z,3.10
2018-07-15T10:24:19.829Z,3.00
2018-07-15T10:26:46.978Z,2.80
2018-07-15T10:29:14.103Z,2.80
2018-07-15T10:31:41.216Z,2.90
2018-07-15T10:34:08.335Z,3.10
2018-07-15T10:36:35.428Z,2.73
2018-07-15T10:39:02.604Z,3.10
2018-07-15T10:41:29.732Z,2.80
2018-07-15T10:43:56.852Z,2.87
2018-07-15T10:46:23.938Z,3.17
2018-07-15T10:48:51.065Z,2.80
2018-07-15T10:51:18.214Z,2.70
2018-07-15T10:53:45.317Z,2.97
2018-07-15T10:56:12.442Z,3.17
2018-07-15T10:58:39.575Z,2.87
2018-07-15T11:01:06.804Z,3.00
2018-07-15T11:03:33.846Z,2.83
2018-07-15T11:06:00.984Z,2.87
2018-07-15T11:08:28.109Z,3.13
2018-07-15T11:10:55.229Z,2.90
2018-07-15T11:13:22.472Z,2.80
2018-07-15T11:15:49.661Z,2.73
2018-07-15T11:18:17.058Z,2.70
2018-07-15T11:20:44.224Z,2.73
2018-07-15T11:23:11.341Z,2.90
2018-07-15T11:25:38.554Z,2.80
2018-07-15T11:28:05.652Z,2.40
2018-07-15T11:30:32.824Z,2.53
2018-07-15T11:33:02.592Z,2.50
2018-07-15T11:35:29.706Z,2.67
2018-07-15T11:37:56.828Z,2.30
2018-07-15T11:40:23.961Z,2.53
2018-07-15T11:42:51.099Z,2.33
2018-07-15T11:45:18.391Z,2.43
2018-07-15T11:47:45.495Z,2.47
2018-07-15T11:50:12.625Z,2.70
2018-07-15T11:52:40.083Z,2.83
2018-07-15T11:55:07.213Z,2.67
2018-07-15T11:57:34.517Z,2.60
2018-07-15T12:00:01.691Z,2.50
2018-07-15T12:02:28.819Z,2.43
2018-07-15T12:04:55.965Z,2.20
2018-07-15T12:07:23.093Z,2.97
2018-07-15T12:09:50.272Z,2.30
2018-07-15T12:12:17.416Z,2.10
2018-07-15T12:14:44.679Z,1.90
2018-07-15T12:17:11.780Z,2.20
2018-07-15T12:19:39.157Z,2.10
2018-07-15T12:22:06.353Z,2.00
2018-07-15T12:24:33.510Z,2.00
2018-07-15T12:27:00.693Z,2.30
2018-07-15T12:29:27.789Z,2.20
2018-07-15T12:31:54.957Z,2.00
2018-07-15T12:34:22.181Z,1.90
2018-07-15T12:36:49.698Z,2.10
2018-07-15T12:39:17.565Z,2.23
2018-07-15T12:41:44.876Z,2.20
2018-07-15T12:44:12.006Z,1.90
2018-07-15T12:46:39.194Z,2.10
2018-07-15T12:49:06.301Z,2.00
2018-07-15T12:51:33.413Z,1.80
2018-07-15T12:54:00.526Z,1.97
2018-07-15T12:56:27.808Z,2.07
2018-07-15T12:58:54.916Z,1.90
2018-07-15T13:01:22.033Z,1.70
2018-07-15T13:03:49.148Z,1.83
2018-07-15T13:06:16.477Z,1.87
2018-07-15T13:08:43.676Z,1.73
2018-07-15T13:11:11.078Z,1.90
2018-07-15T13:13:38.189Z,1.83
2018-07-15T13:16:05.321Z,1.90
2018-07-15T13:18:32.544Z,2.13
2018-07-15T13:20:59.938Z,1.93
2018-07-15T13:23:27.282Z,1.90
2018-07-15T13:25:54.413Z,2.10
2018-07-15T13:28:21.532Z,1.70
2018-07-15T13:30:48.917Z,1.70
2018-07-15T13:33:16.079Z,1.90
2018-07-15T13:35:43.204Z,1.80
2018-07-15T13:38:10.421Z,2.30
2018-07-15T13:40:37.566Z,1.87
2018-07-15T13:43:04.681Z,2.13
2018-07-15T13:45:31.842Z,2.10
2018-07-15T13:47:58.924Z,1.83
2018-07-15T13:50:26.043Z,1.80
2018-07-15T13:52:53.181Z,2.00
2018-07-15T13:55:20.313Z,2.10
2018-07-15T13:57:47.452Z,1.90
2018-07-15T14:00:14.550Z,2.10
2018-07-15T14:02:41.654Z,1.93
2018-07-15T14:05:08.785Z,2.10
2018-07-15T14:07:35.937Z,2.13
2018-07-15T14:10:03.484Z,2.00
2018-07-15T14:12:30.685Z,2.20
2018-07-15T14:14:58.009Z,1.90
2018-07-15T14:17:25.225Z,1.90
2018-07-15T14:19:52.441Z,1.83
2018-07-15T14:22:20.694Z,1.70
2018-07-15T14:24:47.854Z,2.17
2018-07-15T14:27:14.964Z,1.80
2018-07-15T14:29:42.057Z,1.90
2018-07-15T14:32:09.486Z,1.80
2018-07-15T14:34:36.599Z,2.10
2018-07-15T14:37:03.775Z,1.70
2018-07-15T14:39:34.036Z,1.50
2018-07-15T14:42:01.205Z,1.63
2018-07-15T14:44:28.299Z,1.80
2018-07-15T14:46:55.457Z,1.90
2018-07-15T14:49:22.577Z,1.73
2018-07-15T14:51:49.672Z,1.80
2018-07-15T14:54:16.781Z,1.60
2018-07-15T14:56:43.909Z,1.70
2018-07-15T14:59:11.081Z,1.67
2018-07-15T15:01:38.192Z,1.67
2018-07-15T15:04:05.296Z,1.60
2018-07-15T15:06:32.405Z,1.90
2018-07-15T15:08:59.517Z,2.20
2018-07-15T15:11:26.634Z,1.67
2018-07-15T15:13:53.758Z,1.77
2018-07-15T15:16:20.860Z,2.03
2018-07-15T15:18:47.973Z,1.80
2018-07-15T15:21:15.082Z,1.70
2018-07-15T15:23:42.189Z,1.67
2018-07-15T15:26:09.298Z,1.60
2018-07-15T15:28:36.417Z,1.67
2018-07-15T15:31:03.575Z,1.60
2018-07-15T15:33:30.754Z,1.70
2018-07-15T15:35:57.914Z,1.70
2018-07-15T15:38:25.010Z,1.90
2018-07-15T15:40:52.155Z,2.03
2018-07-15T15:43:19.277Z,2.40
2018-07-15T15:45:46.384Z,1.87
2018-07-15T15:48:13.502Z,2.50
2018-07-15T15:50:40.621Z,1.80
2018-07-15T15:53:07.721Z,1.80
2018-07-15T15:55:34.838Z,1.80
2018-07-15T15:58:02.024Z,1.80
2018-07-15T16:00:29.297Z,1.90
2018-07-15T16:02:56.409Z,2.43
2018-07-15T16:05:23.518Z,1.90
2018-07-15T16:07:50.717Z,1.90
2018-07-15T16:10:17.869Z,2.27
2018-07-15T16:12:45.026Z,2.60
2018-07-15T16:15:12.147Z,1.90
2018-07-15T16:17:39.276Z,1.67
2018-07-15T16:20:06.951Z,1.70
2018-07-15T16:22:34.061Z,1.70
2018-07-15T16:25:01.223Z,1.77
2018-07-15T16:27:28.417Z,1.73
2018-07-15T16:29:55.598Z,1.50
2018-07-15T16:32:22.736Z,1.50
2018-07-15T16:34:49.864Z,1.40
2018-07-15T16:37:16.966Z,1.40
2018-07-15T16:39:44.078Z,1.60
2018-07-15T16:42:11.205Z,1.60
2018-07-15T16:44:38.466Z,1.30
2018-07-15T16:47:05.606Z,1.60
2018-07-15T16:49:32.753Z,1.90
2018-07-15T16:51:59.881Z,2.10
2018-07-15T16:54:26.997Z,1.67
2018-07-15T16:56:54.177Z,1.70
2018-07-15T16:59:21.273Z,1.60
2018-07-15T17:01:48.386Z,1.77
2018-07-15T17:04:15.524Z,1.80
2018-07-15T17:06:42.638Z,1.50
2018-07-15T17:09:09.732Z,2.30
2018-07-15T17:11:36.849Z,1.77
2018-07-15T17:14:03.971Z,1.67
2018-07-15T17:16:31.085Z,2.00
2018-07-15T17:18:58.193Z,1.30
2018-07-15T17:21:25.300Z,1.30
2018-07-15T17:23:52.433Z,1.93
2018-07-15T17:26:19.542Z,1.80
2018-07-15T17:28:46.661Z,1.63
2018-07-15T17:31:13.764Z,1.60
2018-07-15T17:33:40.928Z,1.60
2018-07-15T17:36:08.003Z,2.47
2018-07-15T17:38:35.113Z,2.00
2018-07-15T17:41:02.213Z,3.80
2018-07-15T17:43:29.326Z,3.80
2018-07-15T17:45:56.461Z,2.40
2018-07-15T17:48:23.607Z,1.30
2018-07-15T17:50:50.709Z,1.60
2018-07-15T17:53:17.855Z,1.60
2018-07-15T17:55:44.968Z,1.50
2018-07-15T17:58:12.117Z,1.63
2018-07-15T18:00:39.218Z,1.30
2018-07-15T18:03:06.365Z,3.23
2018-07-15T18:05:33.479Z,2.10
2018-07-15T18:08:00.604Z,1.33
2018-07-15T18:10:27.782Z,1.20
2018-07-15T18:12:54.822Z,1.50
2018-07-15T18:15:22.030Z,1.30
2018-07-15T18:17:49.152Z,1.00
2018-07-15T18:20:16.322Z,1.07
2018-07-15T18:22:43.479Z,1.13
2018-07-15T18:25:10.578Z,1.10
2018-07-15T18:27:37.689Z,1.13
2018-07-15T18:30:04.794Z,1.20
2018-07-15T18:32:31.892Z,2.57
2018-07-15T18:34:59.003Z,2.70
2018-07-15T18:37:26.093Z,1.40
2018-07-15T18:39:53.200Z,1.80
2018-07-15T18:42:20.330Z,3.13
2018-07-15T18:44:47.472Z,2.23
2018-07-15T18:47:15.392Z,2.17
2018-07-15T18:49:43.952Z,2.40
2018-07-15T18:52:11.913Z,1.93
2018-07-15T18:54:39.060Z,1.57
2018-07-15T18:57:06.164Z,1.20
2018-07-15T18:59:33.250Z,1.20
2018-07-15T19:02:06.790Z,1.00
2018-07-15T19:04:33.957Z,1.10
2018-07-15T19:07:01.094Z,1.20
2018-07-15T19:09:28.189Z,1.20
2018-07-15T19:11:55.337Z,1.10
2018-07-15T19:14:22.481Z,1.40
2018-07-15T19:16:49.585Z,1.00
2018-07-15T19:19:18.711Z,1.17
2018-07-15T19:21:45.872Z,1.07
2018-07-15T19:24:19.166Z,0.90
2018-07-15T19:26:47.992Z,1.20
2018-07-15T19:29:15.097Z,1.30
2018-07-15T19:31:42.242Z,1.30
2018-07-15T19:34:09.425Z,1.20
2018-07-15T19:36:36.614Z,1.23
2018-07-15T19:39:04.443Z,1.00
2018-07-15T19:41:31.546Z,1.20
2018-07-15T19:43:58.829Z,1.27
2018-07-15T19:46:25.937Z,1.20
2018-07-15T19:48:53.101Z,1.20
2018-07-15T19:51:20.220Z,1.20
2018-07-15T19:53:47.344Z,1.20
2018-07-15T19:56:14.461Z,1.47
2018-07-15T19:58:41.641Z,1.30
2018-07-15T20:01:08.815Z,1.30
2018-07-15T20:03:35.892Z,1.30
2018-07-15T20:06:03.001Z,1.10
2018-07-15T20:08:30.225Z,1.30
2018-07-15T20:10:57.358Z,3.10
2018-07-15T20:13:24.466Z,2.37
2018-07-15T20:15:51.585Z,2.30
2018-07-15T20:18:18.679Z,1.43
2018-07-15T20:20:45.842Z,1.47
2018-07-15T20:23:12.904Z,1.40
2018-07-15T20:25:39.994Z,1.40
2018-07-15T20:28:07.176Z,1.70
2018-07-15T20:30:34.284Z,1.27
2018-07-15T20:33:01.409Z,1.30
2018-07-15T20:35:28.556Z,1.20
2018-07-15T20:37:55.738Z,1.60
2018-07-15T20:40:23.011Z,1.20
2018-07-15T20:42:50.121Z,1.60
2018-07-15T20:45:17.222Z,1.93
2018-07-15T20:47:44.756Z,2.10
2018-07-15T20:50:12.067Z,2.17
2018-07-15T20:52:39.192Z,2.10
2018-07-15T20:55:06.301Z,3.10
2018-07-15T20:57:33.426Z,2.60
2018-07-15T21:00:00.526Z,3.10
2018-07-15T21:02:27.659Z,2.13
2018-07-15T21:04:54.834Z,1.43
2018-07-15T21:07:21.945Z,1.20
2018-07-15T21:09:49.095Z,1.23
2018-07-15T21:12:16.326Z,1.20
2018-07-15T21:14:43.447Z,1.40
2018-07-15T21:17:10.604Z,1.30
2018-07-15T21:19:37.689Z,1.20
2018-07-15T21:22:04.825Z,1.27
2018-07-15T21:24:31.908Z,1.10
2018-07-15T21:26:59.278Z,1.10
2018-07-15T21:29:26.372Z,1.00
2018-07-15T21:31:53.490Z,1.20
2018-07-15T21:34:20.589Z,1.03
2018-07-15T21:36:47.695Z,1.30
2018-07-15T21:39:14.817Z,1.40
2018-07-15T21:41:41.926Z,1.20
2018-07-15T21:44:09.068Z,1.10
2018-07-15T21:46:36.125Z,1.30
2018-07-15T21:49:03.481Z,1.27
2018-07-15T21:51:30.740Z,1.30
2018-07-15T21:53:57.846Z,1.20
2018-07-15T21:56:24.949Z,1.20
2018-07-15T21:58:52.061Z,1.30
2018-07-15T22:01:19.232Z,1.40
2018-07-15T22:03:46.341Z,1.17
2018-07-15T22:06:19.208Z,1.27
2018-07-15T22:08:51.874Z,1.07
2018-07-15T22:11:19.257Z,1.20
2018-07-15T22:13:46.361Z,1.20
2018-07-15T22:16:13.470Z,1.10
2018-07-15T22:18:40.577Z,1.30
2018-07-15T22:21:07.730Z,1.07
2018-07-15T22:23:34.789Z,1.20
2018-07-15T22:26:02.012Z,1.33
2018-07-15T22:28:29.097Z,1.40
2018-07-15T22:30:56.235Z,1.10
2018-07-15T22:33:23.330Z,1.17
2018-07-15T22:35:50.438Z,1.07
2018-07-15T22:38:17.619Z,1.50
2018-07-15T22:40:44.932Z,1.20
2018-07-15T22:43:12.046Z,1.20
2018-07-15T22:45:39.151Z,1.10
2018-07-15T22:48:06.272Z,1.23
2018-07-15T22:50:33.373Z,1.10
2018-07-15T22:53:00.497Z,1.30
2018-07-15T22:55:27.605Z,1.40
2018-07-15T22:57:54.707Z,1.13
2018-07-15T23:00:22.005Z,1.30
2018-07-15T23:02:49.177Z,1.20
2018-07-15T23:05:30.946Z,1.20
2018-07-15T23:07:58.088Z,1.30
2018-07-15T23:10:25.177Z,1.30
2018-07-15T23:12:52.605Z,1.30
2018-07-15T23:15:20.717Z,1.33
2018-07-15T23:17:47.860Z,1.30
2018-07-15T23:20:14.966Z,1.20
2018-07-15T23:22:42.113Z,1.20
2018-07-15T23:25:09.193Z,1.20
2018-07-15T23:27:36.314Z,1.20
2018-07-15T23:30:03.435Z,1.30
2018-07-15T23:32:30.549Z,1.20
2018-07-15T23:34:57.665Z,1.50
2018-07-15T23:37:24.772Z,1.33
2018-07-15T23:39:51.912Z,1.33
2018-07-15T23:42:19.016Z,1.27
2018-07-15T23:44:46.204Z,1.33
2018-07-15T23:47:13.293Z,1.50
2018-07-15T23:49:40.397Z,1.17
2018-07-15T23:52:07.508Z,1.30
2018-07-15T23:54:34.632Z,1.37
2018-07-15T23:57:01.737Z,1.40
2018-07-15T23:59:28.861Z,1.30
